Time;durP1;ratioP1;P1;durP2;ratioP2;P2;SDS_P1;SDS_P2;PMS_P1;PMS_P2;Temp;Humidity;BMP_temperature;BMP_pressure;BME280_temperature;BME280_humidity;BME280_pressure;Samples;Min_cycle;Max_cycle;Signal;HPM_P1;HPM_P2
2023/05/02 00:02:14;;;;;;;2.63;1.75;;;16.20;58.20;;;;;;4943865;28;20054;-82
2023/05/02 00:04:41;;;;;;;2.65;1.90;;;16.10;58.20;;;;;;4938679;28;20059;-81
2023/05/02 00:07:06;;;;;;;3.63;1.98;;;16.10;58.30;;;;;;4947869;28;20109;-81
2023/05/02 00:09:33;;;;;;;4.25;2.00;;;16.00;58.20;;;;;;4947837;28;20551;-80
2023/05/02 00:11:59;;;;;;;4.63;2.13;;;16.00;58.40;;;;;;4944747;28;20032;-80
2023/05/02 00:14:25;;;;;;;2.28;1.67;;;15.90;58.30;;;;;;4940016;28;20035;-83
2023/05/02 00:16:51;;;;;;;3.72;2.00;;;15.90;58.40;;;;;;4943004;28;20093;-83
2023/05/02 00:19:17;;;;;;;4.97;2.15;;;15.90;58.50;;;;;;4945473;28;20426;-83
2023/05/02 00:21:47;;;;;;;2.60;1.50;;;15.80;58.40;;;;;;4943813;29;20071;-83
2023/05/02 00:24:12;;;;;;;2.53;1.88;;;15.80;58.50;;;;;;4932205;28;20675;-82
2023/05/02 00:26:38;;;;;;;2.42;1.70;;;15.80;58.60;;;;;;4946307;28;20028;-82
2023/05/02 00:29:04;;;;;;;2.50;1.80;;;15.80;58.70;;;;;;4942607;28;20082;-82
2023/05/02 00:31:30;;;;;;;2.22;2.03;;;15.80;58.70;;;;;;4943148;28;20038;-81
2023/05/02 00:33:56;;;;;;;2.13;1.98;;;15.70;58.60;;;;;;4939247;28;20066;-82
2023/05/02 00:36:22;;;;;;;3.15;2.00;;;15.70;58.60;;;;;;4947464;28;20043;-82
2023/05/02 00:38:48;;;;;;;4.32;2.70;;;15.80;58.90;;;;;;4948479;28;20027;-81
2023/05/02 00:41:16;;;;;;;3.17;2.15;;;15.70;58.70;;;;;;4942761;29;20505;-79
2023/05/02 00:43:42;;;;;;;2.33;1.85;;;15.70;58.70;;;;;;4925675;28;20411;-80
2023/05/02 00:46:10;;;;;;;2.78;2.10;;;15.80;58.90;;;;;;4943442;28;20042;-80
2023/05/02 00:48:36;;;;;;;2.22;1.98;;;15.80;59.00;;;;;;4948444;28;20050;-81
2023/05/02 00:51:04;;;;;;;4.13;2.78;;;15.70;58.80;;;;;;4946764;28;20323;-82
2023/05/02 00:53:31;;;;;;;3.42;2.38;;;15.80;59.00;;;;;;4941032;28;20291;-81
2023/05/02 00:55:58;;;;;;;1.67;1.58;;;15.80;59.00;;;;;;4942071;28;20264;-81
2023/05/02 00:58:25;;;;;;;2.42;2.17;;;15.70;58.80;;;;;;4944560;28;20043;-81
2023/05/02 01:01:28;;;;;;;2.10;1.90;;;15.70;58.80;;;;;;4942909;28;20031;-80
2023/05/02 01:04:27;;;;;;;2.67;2.42;;;15.70;58.90;;;;;;4942150;28;20151;-81
2023/05/02 01:06:58;;;;;;;2.70;2.22;;;15.70;58.80;;;;;;4943384;28;20090;-80
2023/05/02 01:09:34;;;;;;;2.67;2.17;;;15.70;58.80;;;;;;4947339;28;20529;-80
2023/05/02 01:12:09;;;;;;;3.28;2.35;;;15.70;58.80;;;;;;4938561;28;20598;-80
2023/05/02 01:14:41;;;;;;;2.40;2.20;;;15.70;58.80;;;;;;4947439;28;20430;-80
2023/05/02 01:17:11;;;;;;;3.63;2.97;;;15.60;58.70;;;;;;4936673;28;20051;-80
2023/05/02 01:19:42;;;;;;;3.47;2.45;;;15.60;58.70;;;;;;4943822;28;20039;-80
2023/05/02 01:22:11;;;;;;;3.10;2.67;;;15.60;59.40;;;;;;4941469;28;20035;-80
2023/05/02 01:24:52;;;;;;;3.30;2.97;;;15.60;58.80;;;;;;4941812;28;20110;-79
2023/05/02 01:27:46;;;;;;;3.38;3.08;;;15.60;58.90;;;;;;4945745;28;20077;-79
2023/05/02 01:30:16;;;;;;;3.97;2.83;;;15.50;58.80;;;;;;4933477;28;20038;-79
2023/05/02 01:32:46;;;;;;;2.67;2.47;;;15.50;58.80;;;;;;4942158;28;20129;-79
2023/05/02 01:35:16;;;;;;;2.67;2.25;;;15.50;58.80;;;;;;4942994;28;20154;-79
2023/05/02 01:37:45;;;;;;;3.53;3.22;;;15.50;58.90;;;;;;4941029;28;20046;-81
2023/05/02 01:40:15;;;;;;;2.70;2.50;;;15.50;58.90;;;;;;4949533;28;20035;-81
2023/05/02 01:42:43;;;;;;;4.05;2.95;;;15.40;58.80;;;;;;4950746;28;20043;-81
2023/05/02 01:45:11;;;;;;;3.78;2.70;;;15.40;58.80;;;;;;4942084;28;20329;-82
2023/05/02 01:47:39;;;;;;;3.22;3.03;;;15.40;58.90;;;;;;4948009;28;20055;-82
2023/05/02 01:50:10;;;;;;;3.17;2.88;;;15.40;58.90;;;;;;4938328;28;20070;-82
2023/05/02 01:52:37;;;;;;;5.90;2.88;;;15.30;58.80;;;;;;4947283;28;20038;-82
2023/05/02 01:55:06;;;;;;;3.47;3.22;;;15.30;58.80;;;;;;4947077;28;20051;-79
2023/05/02 01:57:33;;;;;;;2.85;2.33;;;15.30;58.80;;;;;;4950825;28;20035;-80
2023/05/02 02:00:00;;;;;;;2.97;2.78;;;15.30;58.90;;;;;;4949769;28;20031;-80
2023/05/02 02:02:27;;;;;;;2.83;2.63;;;15.30;59.00;;;;;;4951261;28;20412;-81
2023/05/02 02:04:55;;;;;;;3.22;2.92;;;15.20;58.80;;;;;;4950131;28;20423;-82
2023/05/02 02:07:21;;;;;;;3.63;3.33;;;15.20;58.90;;;;;;4949474;28;20692;-78
2023/05/02 02:09:47;;;;;;;3.22;2.92;;;15.10;58.70;;;;;;4946619;28;20067;-82
2023/05/02 02:12:26;;;;;;;3.20;2.95;;;15.10;58.80;;;;;;4942541;28;20039;-81
2023/05/02 02:15:22;;;;;;;4.35;2.90;;;15.10;58.90;;;;;;4942700;28;20308;-78
2023/05/02 02:18:00;;;;;;;2.90;2.70;;;15.10;59.00;;;;;;4941646;28;20039;-79
2023/05/02 02:20:28;;;;;;;3.63;3.10;;;15.00;58.80;;;;;;4951034;28;20085;-79
2023/05/02 02:22:56;;;;;;;3.03;2.78;;;15.00;58.80;;;;;;4946283;28;20502;-79
2023/05/02 02:25:23;;;;;;;3.38;3.08;;;14.90;58.70;;;;;;4938049;28;20035;-80
2023/05/02 02:27:50;;;;;;;3.03;2.78;;;14.90;58.80;;;;;;4945194;29;20035;-78
2023/05/02 02:30:16;;;;;;;3.03;2.72;;;14.80;58.70;;;;;;4944141;28;20033;-78
2023/05/02 02:32:42;;;;;;;3.42;3.13;;;14.80;58.80;;;;;;4949315;28;20490;-79
2023/05/02 02:35:09;;;;;;;3.67;3.10;;;14.70;58.70;;;;;;4944435;28;20114;-78
2023/05/02 02:37:44;;;;;;;3.10;2.90;;;14.70;58.80;;;;;;4945623;29;20034;-79
2023/05/02 02:40:33;;;;;;;3.63;3.33;;;14.60;58.70;;;;;;4947274;29;20142;-79
2023/05/02 02:43:26;;;;;;;3.42;3.13;;;14.60;58.90;;;;;;4928530;29;20109;-80
2023/05/02 02:45:58;;;;;;;3.75;3.45;;;14.50;58.70;;;;;;4972600;28;20045;-81
2023/05/02 02:48:52;;;;;;;3.80;3.50;;;14.50;58.60;;;;;;4970868;28;20036;-80
2023/05/02 02:51:31;;;;;;;4.85;3.80;;;14.50;58.80;;;;;;4981226;28;20062;-80
2023/05/02 02:54:23;;;;;;;3.90;3.13;;;14.40;58.70;;;;;;4977854;28;20058;-80
2023/05/02 02:57:06;;;;;;;3.83;3.53;;;14.40;58.80;;;;;;4967433;28;20023;-81
2023/05/02 02:59:37;;;;;;;3.75;3.28;;;14.30;58.60;;;;;;4951915;28;20035;-80
2023/05/02 03:02:08;;;;;;;3.50;3.20;;;14.30;58.60;;;;;;4951034;28;20047;-80
2023/05/02 03:04:38;;;;;;;4.50;3.65;;;14.30;58.70;;;;;;4953151;28;20043;-80
2023/05/02 03:07:04;;;;;;;3.67;3.13;;;14.30;58.80;;;;;;4951044;28;20225;-80
2023/05/02 03:09:40;;;;;;;3.95;3.58;;;14.20;58.60;;;;;;4949718;29;20043;-80
2023/05/02 03:12:07;;;;;;;4.72;3.58;;;14.20;58.80;;;;;;4948568;28;20087;-81
2023/05/02 03:14:38;;;;;;;3.90;3.60;;;14.20;58.80;;;;;;4949277;28;20035;-80
2023/05/02 03:17:07;;;;;;;4.47;4.07;;;14.20;58.90;;;;;;4950523;28;20247;-80
2023/05/02 03:19:33;;;;;;;3.65;3.35;;;14.10;58.70;;;;;;4948926;28;20051;-80
2023/05/02 03:22:01;;;;;;;4.35;3.30;;;14.10;58.80;;;;;;4950972;28;20035;-80
2023/05/02 03:24:26;;;;;;;3.58;3.28;;;14.10;58.80;;;;;;4950174;28;20042;-80
2023/05/02 03:26:55;;;;;;;3.47;3.17;;;14.10;58.80;;;;;;4951735;28;20031;-81
2023/05/02 03:29:25;;;;;;;4.60;3.60;;;14.10;58.80;;;;;;4946835;28;20118;-79
2023/05/02 03:31:52;;;;;;;3.10;2.85;;;14.10;58.90;;;;;;4935104;28;20043;-78
2023/05/02 03:34:21;;;;;;;4.07;3.63;;;14.00;58.80;;;;;;4951443;28;20478;-80
2023/05/02 03:36:48;;;;;;;4.45;3.75;;;14.00;58.90;;;;;;4953207;28;20078;-80
2023/05/02 03:39:14;;;;;;;3.97;3.38;;;14.00;58.90;;;;;;4948968;28;20439;-80
2023/05/02 03:41:42;;;;;;;5.88;4.28;;;14.00;59.00;;;;;;4949880;28;20518;-80
2023/05/02 03:44:12;;;;;;;4.32;3.90;;;14.00;59.00;;;;;;4940946;28;20035;-79
2023/05/02 03:46:39;;;;;;;4.15;3.85;;;14.00;59.10;;;;;;4952255;28;20054;-80
2023/05/02 03:49:09;;;;;;;4.30;3.90;;;14.00;59.10;;;;;;4950602;28;20043;-80
2023/05/02 03:51:35;;;;;;;4.47;4.05;;;14.00;59.20;;;;;;4950814;28;20407;-80
2023/05/02 03:54:04;;;;;;;4.30;3.92;;;14.00;59.20;;;;;;4951489;28;20063;-79
2023/05/02 03:56:31;;;;;;;4.22;3.88;;;14.00;59.20;;;;;;4951231;28;20416;-79
2023/05/02 03:59:12;;;;;;;4.63;4.10;;;14.00;59.20;;;;;;4947514;28;20047;-79
2023/05/02 04:01:38;;;;;;;5.03;4.63;;;14.00;59.20;;;;;;4955113;28;20095;-80
2023/05/02 04:04:05;;;;;;;4.78;4.38;;;14.00;59.20;;;;;;4945298;29;20378;-79
2023/05/02 04:06:37;;;;;;;5.05;4.60;;;14.00;59.20;;;;;;4949273;29;20039;-79
2023/05/02 04:09:05;;;;;;;5.63;4.70;;;14.00;59.20;;;;;;4947769;28;20118;-78
2023/05/02 04:11:51;;;;;;;4.75;4.32;;;14.00;59.20;;;;;;4946794;29;20085;-79
2023/05/02 04:14:17;;;;;;;4.40;4.00;;;14.00;59.20;;;;;;4946182;28;20589;-78
2023/05/02 04:16:48;;;;;;;6.20;4.72;;;14.00;59.30;;;;;;4946334;28;20066;-78
2023/05/02 04:19:17;;;;;;;4.30;3.90;;;14.00;59.30;;;;;;4948695;29;20032;-79
2023/05/02 04:21:44;;;;;;;4.68;4.28;;;14.00;59.30;;;;;;4950946;28;20376;-79
2023/05/02 04:24:11;;;;;;;4.68;4.28;;;14.00;59.30;;;;;;4947899;28;20567;-79
2023/05/02 04:26:38;;;;;;;4.35;3.95;;;14.00;59.30;;;;;;4946973;28;20093;-80
2023/05/02 04:29:07;;;;;;;5.55;4.97;;;14.00;59.40;;;;;;4941135;29;20054;-79
2023/05/02 04:31:34;;;;;;;5.10;4.40;;;14.00;59.40;;;;;;4962315;28;20403;-79
2023/05/02 04:34:00;;;;;;;4.70;4.20;;;14.00;59.40;;;;;;4945062;29;20035;-79
2023/05/02 04:36:30;;;;;;;4.80;4.40;;;14.00;59.40;;;;;;4946303;28;20036;-80
2023/05/02 04:38:57;;;;;;;5.80;4.93;;;14.00;59.40;;;;;;4948329;28;20079;-80
2023/05/02 04:41:23;;;;;;;4.82;4.43;;;14.00;59.50;;;;;;4949262;28;20133;-79
2023/05/02 04:43:56;;;;;;;5.00;4.60;;;14.00;59.40;;;;;;4949451;28;20039;-79
2023/05/02 04:46:22;;;;;;;5.85;5.15;;;14.00;59.40;;;;;;4950750;28;20145;-79
2023/05/02 04:48:48;;;;;;;5.90;5.30;;;14.00;59.40;;;;;;4941235;28;20516;-78
2023/05/02 04:51:14;;;;;;;6.07;5.57;;;14.10;59.70;;;;;;4942259;28;20027;-78
2023/05/02 04:53:41;;;;;;;7.13;6.43;;;14.10;59.70;;;;;;4945911;28;20274;-79
2023/05/02 04:56:07;;;;;;;5.13;4.72;;;14.10;59.60;;;;;;4941860;29;20035;-78
2023/05/02 04:58:36;;;;;;;6.10;5.50;;;14.10;59.60;;;;;;4942190;28;20031;-79
2023/05/02 05:01:06;;;;;;;5.75;5.25;;;14.10;59.60;;;;;;4955363;28;20038;-78
2023/05/02 05:03:33;;;;;;;6.13;5.53;;;14.10;59.60;;;;;;4957796;28;20530;-79
2023/05/02 05:05:59;;;;;;;6.18;5.68;;;14.10;59.50;;;;;;4941653;28;20517;-80
2023/05/02 05:08:26;;;;;;;9.02;6.85;;;14.20;59.70;;;;;;4941615;28;20039;-79
2023/05/02 05:10:52;;;;;;;6.82;6.22;;;14.20;59.70;;;;;;4937882;28;20043;-80
2023/05/02 05:13:19;;;;;;;6.88;6.28;;;14.20;59.70;;;;;;4940649;28;20022;-80
2023/05/02 05:15:47;;;;;;;6.82;6.22;;;14.20;59.70;;;;;;4942143;28;20043;-82
2023/05/02 05:18:16;;;;;;;6.38;5.60;;;14.20;59.70;;;;;;4926674;29;20443;-79
2023/05/02 05:20:42;;;;;;;7.03;6.30;;;14.20;59.60;;;;;;4939693;28;20028;-79
2023/05/02 05:23:09;;;;;;;7.15;6.50;;;14.20;59.60;;;;;;4944013;28;20042;-79
2023/05/02 05:25:35;;;;;;;7.47;6.85;;;14.20;59.50;;;;;;4943718;28;20031;-79
2023/05/02 05:28:02;;;;;;;7.15;6.55;;;14.20;59.50;;;;;;4941765;28;20052;-80
2023/05/02 05:30:30;;;;;;;6.93;6.32;;;14.30;59.70;;;;;;4940716;28;20427;-81
2023/05/02 05:32:57;;;;;;;7.40;6.70;;;14.20;59.70;;;;;;4945726;28;20070;-79
2023/05/02 05:35:24;;;;;;;8.15;7.45;;;14.30;59.60;;;;;;4932166;28;20117;-79
2023/05/02 05:37:50;;;;;;;7.70;6.90;;;14.30;59.60;;;;;;4934849;28;20369;-79
2023/05/02 05:40:17;;;;;;;8.68;7.88;;;14.30;59.50;;;;;;4937703;28;20237;-79
2023/05/02 05:42:47;;;;;;;7.70;7.00;;;14.40;59.60;;;;;;4935203;28;20043;-79
2023/05/02 05:45:21;;;;;;;8.38;7.57;;;14.40;59.50;;;;;;4937104;28;20297;-78
2023/05/02 05:47:47;;;;;;;8.43;7.60;;;14.50;59.50;;;;;;4939261;28;20345;-82
2023/05/02 05:50:13;;;;;;;8.38;7.57;;;14.60;59.70;;;;;;4943735;28;20050;-79
2023/05/02 05:52:40;;;;;;;7.85;7.18;;;14.60;59.70;;;;;;4940234;28;20662;-79
2023/05/02 05:55:06;;;;;;;8.10;7.40;;;14.60;59.80;;;;;;4939287;28;20237;-78
2023/05/02 05:57:33;;;;;;;7.38;6.53;;;14.80;60.20;;;;;;4937752;28;20035;-79
2023/05/02 05:59:59;;;;;;;7.70;7.00;;;14.90;60.40;;;;;;4916527;29;20560;-81
2023/05/02 06:02:26;;;;;;;7.53;6.82;;;15.00;60.50;;;;;;4937635;28;20553;-79
2023/05/02 06:04:51;;;;;;;7.93;7.18;;;15.10;60.70;;;;;;4933484;29;20038;-80
2023/05/02 06:07:20;;;;;;;7.53;6.90;;;15.20;60.70;;;;;;4956352;28;20019;-80
2023/05/02 06:09:46;;;;;;;7.93;7.22;;;15.30;60.80;;;;;;4924318;28;20399;-77
2023/05/02 06:12:15;;;;;;;7.68;6.97;;;15.40;60.90;;;;;;4932147;28;20037;-77
2023/05/02 06:14:41;;;;;;;8.10;7.40;;;15.60;61.10;;;;;;4931639;28;20059;-78
2023/05/02 06:17:08;;;;;;;7.97;7.18;;;15.70;61.10;;;;;;4932931;28;20463;-78
2023/05/02 06:19:34;;;;;;;8.10;7.38;;;15.80;61.10;;;;;;4933700;28;20047;-80
2023/05/02 06:22:00;;;;;;;7.18;6.55;;;16.00;61.40;;;;;;4937861;28;20039;-78
2023/05/02 06:24:26;;;;;;;8.15;7.35;;;16.20;61.40;;;;;;4938154;28;20038;-78
2023/05/02 06:26:52;;;;;;;9.07;7.35;;;16.40;61.50;;;;;;4930715;28;20689;-79
2023/05/02 06:29:18;;;;;;;8.60;7.80;;;16.60;61.60;;;;;;4934723;28;20043;-78
2023/05/02 06:31:44;;;;;;;9.40;7.68;;;16.80;62.30;;;;;;4916963;28;20518;-78
2023/05/02 06:34:10;;;;;;;7.70;7.00;;;17.10;61.80;;;;;;4938672;28;20039;-79
2023/05/02 06:36:36;;;;;;;8.80;8.10;;;17.40;61.70;;;;;;4939313;28;20031;-77
2023/05/02 06:39:01;;;;;;;8.23;7.53;;;17.60;61.50;;;;;;4937066;28;20152;-78
2023/05/02 06:41:47;;;;;;;8.88;7.97;;;17.80;61.30;;;;;;4936975;28;20097;-79
2023/05/02 06:44:16;;;;;;;8.70;8.00;;;17.80;60.80;;;;;;4938032;28;20415;-78
2023/05/02 06:46:42;;;;;;;9.20;8.50;;;17.80;60.60;;;;;;4936655;29;20086;-78
2023/05/02 06:49:08;;;;;;;8.88;8.07;;;17.90;60.60;;;;;;4939431;28;20447;-78
2023/05/02 06:51:34;;;;;;;8.82;8.10;;;17.90;60.50;;;;;;4936558;28;20047;-79
2023/05/02 06:54:00;;;;;;;8.00;7.30;;;17.80;60.20;;;;;;4936509;28;20525;-79
2023/05/02 06:56:26;;;;;;;8.63;7.93;;;17.80;60.00;;;;;;4936832;28;20027;-78
2023/05/02 06:58:52;;;;;;;7.95;7.25;;;17.80;60.00;;;;;;4952541;28;20409;-78
2023/05/02 07:01:17;;;;;;;8.88;8.07;;;17.80;60.00;;;;;;4937627;28;20040;-78
2023/05/02 07:03:44;;;;;;;8.13;7.32;;;17.80;59.90;;;;;;4938518;28;20490;-78
2023/05/02 07:06:10;;;;;;;8.30;7.60;;;17.80;59.80;;;;;;4938095;28;20031;-79
2023/05/02 07:08:36;;;;;;;7.97;7.20;;;17.80;59.70;;;;;;4937013;28;20042;-79
2023/05/02 07:11:02;;;;;;;8.73;7.93;;;17.90;59.70;;;;;;4936456;28;20460;-79
2023/05/02 07:13:28;;;;;;;7.70;7.00;;;17.90;59.60;;;;;;4933567;28;20175;-79
2023/05/02 07:15:55;;;;;;;9.07;7.53;;;18.00;59.60;;;;;;4937836;28;20337;-79
2023/05/02 07:18:21;;;;;;;7.70;6.90;;;18.00;59.50;;;;;;4936728;28;20035;-79
2023/05/02 07:20:47;;;;;;;9.30;8.40;;;18.10;59.50;;;;;;4940490;28;20181;-78
2023/05/02 07:23:13;;;;;;;8.38;7.68;;;18.10;59.20;;;;;;4938132;28;20506;-77
2023/05/02 07:25:39;;;;;;;8.40;7.65;;;18.20;59.20;;;;;;4937834;28;20563;-78
2023/05/02 07:28:05;;;;;;;8.30;7.60;;;18.30;59.20;;;;;;4956026;28;20022;-78
2023/05/02 07:30:31;;;;;;;7.28;6.68;;;18.30;59.20;;;;;;4959990;28;20392;-79
2023/05/02 07:32:57;;;;;;;8.65;7.85;;;18.30;59.00;;;;;;4964050;28;20082;-77
2023/05/02 07:35:23;;;;;;;7.65;6.95;;;18.40;59.20;;;;;;4962019;28;20043;-76
2023/05/02 07:37:49;;;;;;;8.10;7.40;;;18.50;59.20;;;;;;4957487;28;20015;-77
2023/05/02 07:40:15;;;;;;;8.70;7.90;;;18.60;59.20;;;;;;4963077;28;20031;-77
2023/05/02 07:42:41;;;;;;;8.10;7.40;;;18.60;59.00;;;;;;4942728;28;20039;-79
2023/05/02 07:45:07;;;;;;;8.70;7.82;;;18.60;58.80;;;;;;4937618;28;20034;-78
2023/05/02 07:47:33;;;;;;;8.88;8.07;;;18.70;58.90;;;;;;4941762;28;20113;-78
2023/05/02 07:49:59;;;;;;;9.48;8.50;;;18.70;58.80;;;;;;4940162;28;20046;-78
2023/05/02 07:52:25;;;;;;;7.55;6.82;;;18.70;58.70;;;;;;4945858;28;20557;-78
2023/05/02 07:54:51;;;;;;;8.52;7.82;;;18.80;58.70;;;;;;4937963;28;20098;-78
2023/05/02 07:57:18;;;;;;;8.00;7.20;;;18.90;58.70;;;;;;4937039;28;20090;-79
2023/05/02 07:59:44;;;;;;;8.20;7.13;;;19.00;58.90;;;;;;4937728;28;20043;-77
2023/05/02 08:02:12;;;;;;;6.40;5.80;;;19.10;59.30;;;;;;4940054;28;20039;-78
2023/05/02 08:04:39;;;;;;;6.88;6.18;;;19.20;59.80;;;;;;4938466;28;20034;-77
2023/05/02 08:07:05;;;;;;;6.95;6.30;;;19.30;60.20;;;;;;4942388;28;20039;-78
2023/05/02 08:09:31;;;;;;;6.80;6.15;;;19.50;60.50;;;;;;4932983;28;20513;-77
2023/05/02 08:11:57;;;;;;;5.95;5.45;;;19.60;60.70;;;;;;4931510;28;20146;-76
2023/05/02 08:14:23;;;;;;;9.85;6.57;;;19.80;61.10;;;;;;4939992;28;20070;-77
2023/05/02 08:16:49;;;;;;;7.13;6.15;;;19.90;61.00;;;;;;4938289;28;20038;-76
2023/05/02 08:19:15;;;;;;;6.50;6.00;;;20.10;61.00;;;;;;4942604;28;20031;-77
2023/05/02 08:21:41;;;;;;;7.20;6.60;;;20.30;61.10;;;;;;4938892;28;20047;-80
2023/05/02 08:24:07;;;;;;;5.80;5.30;;;20.40;61.00;;;;;;4924922;28;20534;-78
2023/05/02 08:26:33;;;;;;;5.45;4.97;;;20.60;61.10;;;;;;4939749;28;20195;-77
2023/05/02 08:28:59;;;;;;;5.53;5.13;;;20.80;61.10;;;;;;4937291;28;20073;-78
2023/05/02 08:31:25;;;;;;;5.35;4.85;;;21.00;60.80;;;;;;4939246;28;20580;-78
2023/05/02 08:33:51;;;;;;;5.38;4.90;;;21.20;60.70;;;;;;4938591;28;20030;-77
2023/05/02 08:36:18;;;;;;;5.70;5.20;;;21.40;60.60;;;;;;4941788;28;20035;-77
2023/05/02 08:38:45;;;;;;;5.38;4.88;;;21.60;60.50;;;;;;4941087;28;20586;-76
2023/05/02 08:41:16;;;;;;;5.47;4.50;;;21.70;60.30;;;;;;4939672;28;20525;-77
2023/05/02 08:43:43;;;;;;;6.18;4.82;;;21.80;60.10;;;;;;4942614;28;20039;-78
2023/05/02 08:46:11;;;;;;;5.45;4.55;;;21.90;59.90;;;;;;4939322;28;20293;-76
2023/05/02 08:48:39;;;;;;;4.75;4.35;;;22.00;59.80;;;;;;4940575;28;20635;-76
2023/05/02 08:51:14;;;;;;;5.00;4.32;;;22.20;59.70;;;;;;4938805;28;20630;-77
2023/05/02 08:53:40;;;;;;;5.78;5.18;;;22.30;59.50;;;;;;4942133;28;20060;-76
2023/05/02 08:56:07;;;;;;;5.50;4.97;;;22.40;59.40;;;;;;4943248;28;20129;-77
2023/05/02 08:58:35;;;;;;;6.03;5.53;;;22.40;59.10;;;;;;4935354;28;20043;-78
2023/05/02 09:01:08;;;;;;;8.15;5.70;;;22.50;58.90;;;;;;4938509;28;20039;-80
2023/05/02 09:03:34;;;;;;;;;;;22.50;58.60;;;;;;4935142;28;20050;-79
2023/05/02 09:06:04;;;;;;;5.07;4.68;;;22.50;58.50;;;;;;4940739;28;19918;-80
2023/05/02 09:08:30;;;;;;;6.05;5.55;;;22.50;58.40;;;;;;4934202;28;20048;-79
2023/05/02 09:10:58;;;;;;;6.35;4.95;;;22.50;58.30;;;;;;4938250;29;20078;-79
2023/05/02 09:13:36;;;;;;;6.03;5.53;;;22.50;58.00;;;;;;4928040;28;20047;-79
2023/05/02 09:16:04;;;;;;;5.45;4.70;;;22.50;58.20;;;;;;4936492;28;20035;-78
2023/05/02 09:18:51;;;;;;;5.38;4.88;;;22.60;57.70;;;;;;4942376;28;20113;-79
2023/05/02 09:21:44;;;;;;;5.95;5.45;;;22.70;57.70;;;;;;4938427;29;20196;-78
2023/05/02 09:24:21;;;;;;;5.20;4.70;;;22.70;57.40;;;;;;4934429;28;20255;-78
2023/05/02 09:27:04;;;;;;;6.22;5.63;;;22.90;57.30;;;;;;4925171;28;20090;-78
2023/05/02 09:29:36;;;;;;;6.35;5.78;;;23.00;57.00;;;;;;4940337;28;20423;-79
2023/05/02 09:32:04;;;;;;;5.68;5.18;;;23.10;57.00;;;;;;4941596;28;20030;-79
2023/05/02 09:34:30;;;;;;;6.35;5.72;;;23.20;57.00;;;;;;4932496;28;20326;-78
2023/05/02 09:36:57;;;;;;;7.57;6.88;;;23.30;56.90;;;;;;4948327;28;20122;-77
2023/05/02 09:39:25;;;;;;;6.38;5.88;;;23.40;56.70;;;;;;4939423;28;20031;-79
2023/05/02 09:41:51;;;;;;;7.13;6.53;;;23.50;56.50;;;;;;4931269;28;20027;-78
2023/05/02 09:44:23;;;;;;;5.70;5.28;;;23.60;56.50;;;;;;4947334;28;20039;-79
2023/05/02 09:46:54;;;;;;;6.00;5.28;;;23.80;56.50;;;;;;4934687;28;20055;-78
2023/05/02 09:49:38;;;;;;;6.75;6.25;;;23.90;56.40;;;;;;4940517;28;20054;-78
2023/05/02 09:52:16;;;;;;;8.32;6.57;;;24.00;56.00;;;;;;4934446;28;20035;-79
2023/05/02 09:54:45;;;;;;;7.22;6.53;;;24.10;56.00;;;;;;4943936;28;20054;-79
2023/05/02 09:57:11;;;;;;;6.68;6.07;;;24.20;56.10;;;;;;4937960;28;20063;-79
2023/05/02 09:59:38;;;;;;;6.88;6.18;;;24.30;56.10;;;;;;4941760;28;20058;-79
2023/05/02 10:02:08;;;;;;;6.68;6.07;;;24.30;55.90;;;;;;4937988;28;20280;-78
2023/05/02 10:04:35;;;;;;;7.20;6.50;;;24.30;55.70;;;;;;4941506;28;20055;-78
2023/05/02 10:07:02;;;;;;;7.47;6.88;;;24.40;55.80;;;;;;4936837;28;20039;-77
2023/05/02 10:09:31;;;;;;;6.82;6.22;;;24.50;55.80;;;;;;4936589;28;20070;-77
2023/05/02 10:12:03;;;;;;;8.38;7.68;;;24.60;55.80;;;;;;4936770;28;20432;-78
2023/05/02 10:14:34;;;;;;;6.47;5.97;;;24.60;55.40;;;;;;4934533;28;20050;-78
2023/05/02 10:17:11;;;;;;;8.45;7.75;;;24.60;55.30;;;;;;4935055;28;20046;-78
2023/05/02 10:19:55;;;;;;;8.05;7.35;;;24.60;55.10;;;;;;4938267;28;20069;-80
2023/05/02 10:22:22;;;;;;;8.73;8.02;;;24.60;55.00;;;;;;4941989;28;20521;-77
2023/05/02 10:24:49;;;;;;;8.80;8.00;;;24.60;55.10;;;;;;4932148;28;20195;-77
2023/05/02 10:27:15;;;;;;;8.55;7.80;;;24.60;54.80;;;;;;4937863;28;20031;-77
2023/05/02 10:29:41;;;;;;;7.85;7.05;;;24.70;54.80;;;;;;4936521;28;20043;-79
2023/05/02 10:32:09;;;;;;;7.70;6.97;;;24.80;54.70;;;;;;4937395;28;20082;-78
2023/05/02 10:34:35;;;;;;;7.72;7.05;;;24.90;54.80;;;;;;4936762;28;20043;-79
2023/05/02 10:37:02;;;;;;;7.55;6.85;;;25.10;54.80;;;;;;4935282;28;20392;-78
2023/05/02 10:39:28;;;;;;;8.50;7.80;;;25.20;54.60;;;;;;4937109;28;20038;-79
2023/05/02 10:41:57;;;;;;;7.50;6.43;;;25.20;54.40;;;;;;4936512;28;20046;-82
2023/05/02 10:44:37;;;;;;;7.05;6.45;;;25.30;54.30;;;;;;4948654;28;20031;-80
2023/05/02 10:47:22;;;;;;;7.38;6.68;;;25.50;54.10;;;;;;4942287;28;20189;-80
2023/05/02 10:49:53;;;;;;;6.70;6.18;;;25.70;53.90;;;;;;4940393;28;20134;-80
2023/05/02 10:52:30;;;;;;;7.50;6.78;;;25.80;53.70;;;;;;4941521;28;20428;-80
2023/05/02 10:55:15;;;;;;;7.78;7.18;;;26.00;53.30;;;;;;4937773;28;20106;-81
2023/05/02 10:57:57;;;;;;;6.18;5.68;;;26.20;52.80;;;;;;4937998;28;20046;-80
2023/05/02 11:00:28;;;;;;;7.57;6.90;;;26.40;52.60;;;;;;4937508;28;20039;-79
2023/05/02 11:02:54;;;;;;;7.10;6.40;;;26.50;52.50;;;;;;4941181;28;20035;-79
2023/05/02 11:05:22;;;;;;;7.63;5.78;;;26.50;52.40;;;;;;4939972;28;20459;-79
2023/05/02 11:07:48;;;;;;;6.40;5.90;;;26.70;52.30;;;;;;4937850;28;20031;-79
2023/05/02 11:10:16;;;;;;;6.70;6.05;;;26.80;52.10;;;;;;4942894;28;20027;-79
2023/05/02 11:12:46;;;;;;;5.72;5.22;;;26.90;51.90;;;;;;4941471;28;20031;-81
2023/05/02 11:15:13;;;;;;;5.78;5.38;;;27.10;51.80;;;;;;4941166;28;20134;-80
2023/05/02 11:18:02;;;;;;;5.70;5.18;;;27.30;51.50;;;;;;4939403;28;20039;-81
2023/05/02 11:20:29;;;;;;;6.13;5.53;;;27.50;50.90;;;;;;4943051;28;20491;-79
2023/05/02 11:22:57;;;;;;;5.82;5.32;;;27.70;50.90;;;;;;4940975;28;20562;-79
2023/05/02 11:25:34;;;;;;;5.40;4.90;;;27.80;50.60;;;;;;4939281;28;20038;-80
2023/05/02 11:28:01;;;;;;;5.22;4.72;;;27.90;50.20;;;;;;4937004;28;20141;-79
2023/05/02 11:30:40;;;;;;;5.28;4.78;;;28.00;50.30;;;;;;4938896;28;20035;-80
2023/05/02 11:33:07;;;;;;;4.97;4.47;;;28.20;50.00;;;;;;4941619;28;20035;-78
2023/05/02 11:35:34;;;;;;;4.80;4.40;;;28.40;50.00;;;;;;4938065;28;20043;-78
2023/05/02 11:38:03;;;;;;;4.85;4.38;;;28.60;49.70;;;;;;4939098;28;20047;-78
2023/05/02 11:40:30;;;;;;;4.32;3.88;;;28.90;49.50;;;;;;4942761;28;20050;-77
2023/05/02 11:42:57;;;;;;;4.43;3.60;;;29.10;49.20;;;;;;4937296;28;20260;-78
2023/05/02 11:45:38;;;;;;;4.10;3.78;;;29.40;49.00;;;;;;4940536;28;20039;-77
2023/05/02 11:48:08;;;;;;;4.07;3.78;;;29.70;49.20;;;;;;4937894;28;20056;-77
2023/05/02 11:51:06;;;;;;;3.53;3.30;;;29.80;48.30;;;;;;4940362;28;20035;-77
2023/05/02 11:53:32;;;;;;;4.20;3.67;;;29.90;48.00;;;;;;4935776;28;20290;-77
2023/05/02 11:56:00;;;;;;;4.13;3.72;;;29.90;48.00;;;;;;4946095;28;20039;-78
2023/05/02 11:58:32;;;;;;;4.68;4.28;;;29.90;47.80;;;;;;4951600;28;20228;-77
2023/05/02 12:01:11;;;;;;;3.70;3.50;;;29.90;47.70;;;;;;4942156;28;20471;-77
2023/05/02 12:03:37;;;;;;;3.88;3.58;;;29.80;47.70;;;;;;4953414;28;20046;-78
2023/05/02 12:06:12;;;;;;;4.10;3.65;;;29.80;47.80;;;;;;4949539;28;20039;-78
2023/05/02 12:08:39;;;;;;;4.20;3.80;;;29.70;47.60;;;;;;4954387;28;20542;-77
2023/05/02 12:11:06;;;;;;;4.25;3.85;;;29.70;47.70;;;;;;4937277;28;20395;-78
2023/05/02 12:13:32;;;;;;;4.45;4.05;;;29.70;47.60;;;;;;4944941;28;20106;-77
2023/05/02 12:15:59;;;;;;;4.35;3.83;;;29.70;48.00;;;;;;4948944;28;20042;-78
2023/05/02 12:18:26;;;;;;;4.10;3.80;;;29.60;47.20;;;;;;4945340;28;20027;-78
2023/05/02 12:20:53;;;;;;;4.25;3.92;;;29.60;47.10;;;;;;4934716;28;20050;-78
2023/05/02 12:23:21;;;;;;;4.25;3.72;;;29.60;47.00;;;;;;4954179;28;20031;-78
2023/05/02 12:25:50;;;;;;;4.30;4.00;;;29.50;46.90;;;;;;4948545;28;20039;-78
2023/05/02 12:28:18;;;;;;;4.10;3.80;;;29.50;46.90;;;;;;4947714;28;20065;-77
2023/05/02 12:30:47;;;;;;;3.95;3.65;;;29.50;46.80;;;;;;4934616;28;20097;-77
2023/05/02 12:33:13;;;;;;;4.50;4.05;;;29.50;46.80;;;;;;4943521;28;20207;-78
2023/05/02 12:35:39;;;;;;;3.90;3.50;;;29.50;46.80;;;;;;4936589;28;20043;-78
2023/05/02 12:38:22;;;;;;;4.03;3.60;;;29.60;46.70;;;;;;4938741;28;20043;-78
2023/05/02 12:40:50;;;;;;;3.47;3.10;;;29.80;46.30;;;;;;4944014;28;20046;-78
2023/05/02 12:43:17;;;;;;;3.50;3.20;;;30.00;46.40;;;;;;4945761;28;20039;-78
2023/05/02 12:45:43;;;;;;;4.00;3.15;;;30.10;46.20;;;;;;4942758;28;20034;-78
2023/05/02 12:48:26;;;;;;;4.03;3.63;;;30.30;46.20;;;;;;4943269;28;20050;-79
2023/05/02 12:50:54;;;;;;;3.42;3.13;;;30.30;46.10;;;;;;4934446;28;20024;-81
2023/05/02 12:53:43;;;;;;;3.95;3.55;;;30.30;46.20;;;;;;4939016;28;20063;-78
2023/05/02 12:56:12;;;;;;;4.38;3.97;;;30.30;46.00;;;;;;4942388;28;20077;-79
2023/05/02 12:58:43;;;;;;;4.40;3.45;;;30.30;46.70;;;;;;4938975;28;20038;-77
2023/05/02 13:01:09;;;;;;;3.50;3.20;;;30.40;46.00;;;;;;4940839;28;20037;-79